createdAt,value
2022-08-07T00:00:28.108Z,12.27
2022-08-07T00:02:57.210Z,13.82
2022-08-07T00:05:27.844Z,10.57
2022-08-07T00:08:00.238Z,9.90
2022-08-07T00:10:30.474Z,11.65
2022-08-07T00:13:02.217Z,9.87
2022-08-07T00:15:46.870Z,10.32
2022-08-07T00:18:24.006Z,10.93
2022-08-07T00:20:56.647Z,10.18
2022-08-07T00:23:25.356Z,11.70
2022-08-07T00:26:00.047Z,8.90
2022-08-07T00:28:33.491Z,8.73
2022-08-07T00:31:05.740Z,8.27
2022-08-07T00:33:34.824Z,7.85
2022-08-07T00:36:06.112Z,8.30
2022-08-07T00:38:36.726Z,9.48
2022-08-07T00:41:10.016Z,8.15
2022-08-07T00:43:58.872Z,8.27
2022-08-07T00:46:31.083Z,8.18
2022-08-07T00:49:03.401Z,8.43
2022-08-07T00:51:58.436Z,7.68
2022-08-07T00:54:22.502Z,9.38
2022-08-07T00:56:51.695Z,8.13
2022-08-07T00:59:35.115Z,9.35
2022-08-07T01:02:06.357Z,8.60
2022-08-07T01:04:43.980Z,7.40
2022-08-07T01:07:14.438Z,8.07
2022-08-07T01:10:05.289Z,9.35
2022-08-07T01:12:32.248Z,7.50
2022-08-07T01:15:04.000Z,8.57
2022-08-07T01:17:33.662Z,7.43
2022-08-07T01:20:06.532Z,7.68
2022-08-07T01:22:46.833Z,7.90
2022-08-07T01:25:53.564Z,6.80
2022-08-07T01:28:16.563Z,6.07
2022-08-07T01:30:47.027Z,7.72
2022-08-07T01:33:18.642Z,6.72
2022-08-07T01:35:54.506Z,5.78
2022-08-07T01:38:36.671Z,5.70
2022-08-07T01:41:26.225Z,5.72
2022-08-07T01:43:59.298Z,7.47
2022-08-07T01:46:31.333Z,5.40
2022-08-07T01:49:00.665Z,5.53
2022-08-07T01:52:03.195Z,5.88
2022-08-07T01:54:32.978Z,5.38
2022-08-07T01:57:09.697Z,4.93
2022-08-07T01:59:56.440Z,5.53
2022-08-07T02:03:11.380Z,5.70
2022-08-07T02:08:08.818Z,5.35
2022-08-07T02:10:43.407Z,5.57
2022-08-07T02:13:56.415Z,4.63
2022-08-07T02:16:19.614Z,6.63
2022-08-07T02:18:51.316Z,5.50
2022-08-07T02:21:21.097Z,5.65
2022-08-07T02:23:50.852Z,5.28
2022-08-07T02:26:32.563Z,6.57
2022-08-07T02:29:04.359Z,5.80
2022-08-07T02:31:33.763Z,5.07
2022-08-07T02:34:11.474Z,4.68
2022-08-07T02:36:52.643Z,4.43
2022-08-07T02:39:42.964Z,5.70
2022-08-07T02:42:16.399Z,4.47
2022-08-07T02:44:50.303Z,3.90
2022-08-07T02:47:23.950Z,5.20
2022-08-07T02:50:03.940Z,4.07
2022-08-07T02:52:38.676Z,3.88
2022-08-07T02:55:15.277Z,5.05
2022-08-07T02:57:59.926Z,4.85
2022-08-07T03:00:30.615Z,5.00
2022-08-07T03:03:00.578Z,4.45
2022-08-07T03:05:37.114Z,5.75
2022-08-07T03:08:10.172Z,5.07
2022-08-07T03:10:46.561Z,4.63
2022-08-07T03:13:21.568Z,7.03
2022-08-07T03:15:56.515Z,5.57
2022-08-07T03:18:34.652Z,4.15
2022-08-07T03:21:08.161Z,5.53
2022-08-07T03:24:20.465Z,4.65
2022-08-07T03:26:32.126Z,4.10
2022-08-07T03:29:10.486Z,6.53
2022-08-07T03:31:46.340Z,5.93
2022-08-07T03:34:22.213Z,8.75
2022-08-07T03:36:57.399Z,6.30
2022-08-07T03:39:58.921Z,4.97
2022-08-07T03:42:20.009Z,5.05
2022-08-07T03:44:53.613Z,4.38
2022-08-07T03:47:28.021Z,5.43
2022-08-07T03:49:59.613Z,5.28
2022-08-07T03:52:34.542Z,5.82
2022-08-07T03:55:07.814Z,4.80
2022-08-07T03:58:33.924Z,4.88
2022-08-07T04:00:36.573Z,6.28
2022-08-07T04:03:06.958Z,5.50
2022-08-07T04:05:42.372Z,4.53
2022-08-07T04:08:20.975Z,4.97
2022-08-07T04:10:54.514Z,4.60
2022-08-07T04:14:10.528Z,5.43
2022-08-07T04:16:34.170Z,5.90
2022-08-07T04:19:14.799Z,6.32
2022-08-07T04:21:59.354Z,5.47
2022-08-07T04:24:41.145Z,5.38
2022-08-07T04:27:20.624Z,4.63
2022-08-07T04:30:01.687Z,5.25
2022-08-07T04:32:47.981Z,4.70
2022-08-07T04:35:18.605Z,5.15
2022-08-07T04:38:02.804Z,5.43
2022-08-07T04:40:34.639Z,5.03
2022-08-07T04:43:03.820Z,5.82
2022-08-07T04:45:57.697Z,6.13
2022-08-07T04:48:40.668Z,6.03
2022-08-07T04:51:18.439Z,5.32
2022-08-07T04:54:05.106Z,3.90
2022-08-07T04:58:16.966Z,4.18
2022-08-07T05:00:11.510Z,4.35
2022-08-07T05:02:25.976Z,5.30
2022-08-07T05:05:01.432Z,5.20
2022-08-07T05:07:36.491Z,5.60
2022-08-07T05:10:11.650Z,4.95
2022-08-07T05:12:53.097Z,5.85
2022-08-07T05:15:27.315Z,4.30
2022-08-07T05:18:08.668Z,4.85
2022-08-07T05:20:44.042Z,4.35
2022-08-07T05:23:15.505Z,5.05
2022-08-07T05:26:10.689Z,6.40
2022-08-07T05:28:36.976Z,4.68
2022-08-07T05:31:12.613Z,5.03
2022-08-07T05:34:01.084Z,4.20
2022-08-07T05:36:36.106Z,4.00
2022-08-07T05:40:06.462Z,3.50
2022-08-07T05:42:07.515Z,5.93
2022-08-07T05:44:46.440Z,6.15
2022-08-07T05:47:59.993Z,4.13
2022-08-07T05:50:12.246Z,4.47
2022-08-07T05:52:43.140Z,3.42
2022-08-07T05:55:11.832Z,3.42
2022-08-07T05:57:47.327Z,4.03
2022-08-07T06:00:18.472Z,5.30
2022-08-07T06:02:57.921Z,5.60
2022-08-07T06:05:31.367Z,3.75
2022-08-07T06:08:29.631Z,5.18
2022-08-07T06:10:56.767Z,4.80
2022-08-07T06:14:12.719Z,3.78
2022-08-07T06:16:16.961Z,3.25
2022-08-07T06:18:51.504Z,3.83
2022-08-07T06:22:15.241Z,4.68
2022-08-07T06:24:38.125Z,4.72
2022-08-07T06:27:04.785Z,3.15
2022-08-07T06:29:39.031Z,3.83
2022-08-07T06:32:09.378Z,4.15
2022-08-07T06:34:45.235Z,4.18
2022-08-07T06:37:17.098Z,3.80
2022-08-07T06:40:17.395Z,2.67
2022-08-07T06:42:40.060Z,3.58
2022-08-07T06:45:12.579Z,4.50
2022-08-07T06:47:57.275Z,3.20
2022-08-07T06:50:31.152Z,3.20
2022-08-07T06:53:04.453Z,3.33
2022-08-07T06:55:53.745Z,2.50
2022-08-07T06:58:28.896Z,3.45
2022-08-07T07:01:08.488Z,3.15
2022-08-07T07:03:49.273Z,2.97
2022-08-07T07:06:26.527Z,2.65
2022-08-07T07:08:56.796Z,2.95
2022-08-07T07:12:10.665Z,2.97
2022-08-07T07:14:17.805Z,3.15
2022-08-07T07:16:51.116Z,3.70
2022-08-07T07:19:55.502Z,2.85
2022-08-07T07:22:35.688Z,3.40
2022-08-07T07:26:30.449Z,4.97
2022-08-07T07:28:02.599Z,2.33
2022-08-07T07:30:39.602Z,3.20
2022-08-07T07:33:11.718Z,4.25
2022-08-07T07:35:51.831Z,2.78
2022-08-07T07:38:24.685Z,3.05
2022-08-07T07:41:00.035Z,3.90
2022-08-07T07:44:13.904Z,2.13
2022-08-07T07:46:53.975Z,4.57
2022-08-07T07:50:33.222Z,2.80
2022-08-07T07:52:04.272Z,3.63
2022-08-07T07:54:35.958Z,4.28
2022-08-07T07:57:05.483Z,2.92
2022-08-07T07:59:52.655Z,2.92
2022-08-07T08:02:35.489Z,4.40
2022-08-07T08:05:14.190Z,2.58
2022-08-07T08:07:51.668Z,2.15
2022-08-07T08:10:37.572Z,1.90
2022-08-07T08:13:10.556Z,3.05
2022-08-07T08:18:36.642Z,2.60
2022-08-07T08:18:37.240Z,2.83
2022-08-07T08:21:56.928Z,2.80
2022-08-07T08:24:45.032Z,3.80
2022-08-07T08:27:20.570Z,3.47
2022-08-07T08:29:54.577Z,4.55
2022-08-07T08:32:39.201Z,2.85
2022-08-07T08:35:10.122Z,3.03
2022-08-07T08:38:08.132Z,3.75
2022-08-07T08:40:31.130Z,3.40
2022-08-07T08:43:02.858Z,3.00
2022-08-07T08:45:58.613Z,2.88
2022-08-07T08:48:32.603Z,4.55
2022-08-07T08:51:14.228Z,3.10
2022-08-07T08:53:54.767Z,2.92
2022-08-07T08:56:26.082Z,2.67
2022-08-07T08:58:57.144Z,3.08
2022-08-07T09:01:29.541Z,5.28
2022-08-07T09:04:01.899Z,4.03
2022-08-07T09:06:37.687Z,2.83
2022-08-07T09:09:20.972Z,5.07
2022-08-07T09:12:30.237Z,3.30
2022-08-07T09:15:00.233Z,3.03
2022-08-07T09:18:00.369Z,4.05
2022-08-07T09:20:57.800Z,3.13
2022-08-07T09:24:33.628Z,3.63
2022-08-07T09:26:27.782Z,4.15
2022-08-07T09:30:03.320Z,3.33
2022-08-07T09:31:55.568Z,3.17
2022-08-07T09:34:27.292Z,3.03
2022-08-07T09:37:02.266Z,2.85
2022-08-07T09:39:55.369Z,3.42
2022-08-07T09:42:40.106Z,4.40
2022-08-07T09:47:55.247Z,4.13
2022-08-07T09:48:11.755Z,4.05
2022-08-07T09:50:48.345Z,3.22
2022-08-07T09:53:23.617Z,3.40
2022-08-07T09:56:04.677Z,2.70
2022-08-07T09:58:52.329Z,3.05
2022-08-07T10:01:51.982Z,3.35
2022-08-07T10:04:28.407Z,2.85
2022-08-07T10:07:24.377Z,3.08
2022-08-07T10:10:21.977Z,3.60
2022-08-07T10:13:01.936Z,3.17
2022-08-07T10:15:44.367Z,2.70
2022-08-07T10:18:26.415Z,4.03
2022-08-07T10:24:06.551Z,4.65
2022-08-07T10:26:44.228Z,2.90
2022-08-07T10:29:30.514Z,3.78
2022-08-07T10:32:07.366Z,3.33
2022-08-07T10:35:08.971Z,3.58
2022-08-07T10:38:00.398Z,3.25
2022-08-07T10:40:36.699Z,4.05
2022-08-07T10:43:09.295Z,2.40
2022-08-07T10:45:44.718Z,2.67
2022-08-07T10:48:22.682Z,3.92
2022-08-07T10:50:54.048Z,3.13
2022-08-07T10:53:27.571Z,3.95
2022-08-07T10:56:02.550Z,2.58
2022-08-07T10:58:41.277Z,3.38
2022-08-07T11:01:22.443Z,3.53
2022-08-07T11:04:16.514Z,2.70
2022-08-07T11:06:49.920Z,6.30
2022-08-07T11:10:07.137Z,4.38
2022-08-07T11:12:13.820Z,4.43
2022-08-07T11:14:57.419Z,3.42
2022-08-07T11:20:16.214Z,4.13
2022-08-07T11:22:53.313Z,2.75
2022-08-07T11:25:24.985Z,3.17
2022-08-07T11:30:41.405Z,3.03
2022-08-07T11:33:14.222Z,2.90
2022-08-07T11:35:59.076Z,3.20
2022-08-07T11:38:32.407Z,5.00
2022-08-07T11:41:03.266Z,3.58
2022-08-07T11:43:54.449Z,2.83
2022-08-07T11:46:36.766Z,3.40
2022-08-07T11:50:25.461Z,3.15
2022-08-07T11:52:29.266Z,3.67
2022-08-07T11:55:13.035Z,3.75
2022-08-07T11:58:00.166Z,5.88
2022-08-07T12:00:33.156Z,3.00
2022-08-07T12:03:41.333Z,3.67
2022-08-07T12:06:39.070Z,3.58
2022-08-07T12:09:04.795Z,5.10
2022-08-07T12:11:43.235Z,4.25
2022-08-07T12:14:15.346Z,4.90
2022-08-07T12:16:49.401Z,6.00
2022-08-07T12:19:23.182Z,6.30
2022-08-07T12:22:38.654Z,4.95
2022-08-07T12:25:07.679Z,5.20
2022-08-07T12:28:05.829Z,5.17
2022-08-07T12:30:30.092Z,3.53
2022-08-07T12:33:09.308Z,3.67
2022-08-07T12:35:58.123Z,3.17
2022-08-07T12:38:36.713Z,2.97
2022-08-07T12:41:09.876Z,3.40
2022-08-07T12:44:03.454Z,3.33
2022-08-07T12:46:39.087Z,2.97
2022-08-07T12:49:25.452Z,3.08
2022-08-07T12:52:12.071Z,2.95
2022-08-07T12:54:54.907Z,4.50
2022-08-07T12:57:38.766Z,3.10
2022-08-07T13:00:30.931Z,3.97
2022-08-07T13:03:26.948Z,4.93
2022-08-07T13:06:21.392Z,4.00
2022-08-07T13:09:02.153Z,5.00
2022-08-07T13:12:01.852Z,4.47
2022-08-07T13:14:38.291Z,3.50
2022-08-07T13:17:23.140Z,5.25
2022-08-07T13:20:11.496Z,3.63
2022-08-07T13:22:43.403Z,3.22
2022-08-07T13:25:29.541Z,3.45
2022-08-07T13:28:11.007Z,4.15
2022-08-07T13:30:48.928Z,2.95
2022-08-07T13:34:32.907Z,2.70
2022-08-07T13:36:17.477Z,4.15
2022-08-07T13:38:49.528Z,3.47
2022-08-07T13:41:30.309Z,3.20
2022-08-07T13:44:02.446Z,3.42
2022-08-07T13:46:37.698Z,3.95
2022-08-07T13:50:33.935Z,3.90
2022-08-07T13:52:26.547Z,2.95
2022-08-07T13:54:57.204Z,4.43
2022-08-07T13:57:32.222Z,2.80
2022-08-07T14:00:26.055Z,2.50
2022-08-07T14:02:57.751Z,3.00
2022-08-07T14:08:08.007Z,2.40
2022-08-07T14:10:42.164Z,3.25
2022-08-07T14:13:16.579Z,3.42
2022-08-07T14:15:51.786Z,3.55
2022-08-07T14:18:28.924Z,3.85
2022-08-07T14:21:07.836Z,3.17
2022-08-07T14:26:32.448Z,3.35
2022-08-07T14:29:10.557Z,3.67
2022-08-07T14:31:56.273Z,3.00
2022-08-07T14:34:30.097Z,3.30
2022-08-07T14:37:01.794Z,2.30
2022-08-07T14:40:16.923Z,3.20
2022-08-07T14:42:25.204Z,4.63
2022-08-07T14:45:20.832Z,2.38
2022-08-07T14:47:48.940Z,4.10
2022-08-07T14:50:20.512Z,3.92
2022-08-07T14:55:55.603Z,3.80
2022-08-07T14:58:31.079Z,2.53
2022-08-07T15:03:53.364Z,4.15
2022-08-07T15:06:25.370Z,3.80
2022-08-07T15:08:55.709Z,3.88
2022-08-07T15:14:17.519Z,3.65
2022-08-07T15:16:54.539Z,2.97
2022-08-07T15:20:23.541Z,3.70
2022-08-07T15:22:23.081Z,3.00
2022-08-07T15:25:18.352Z,2.58
2022-08-07T15:28:32.858Z,4.85
2022-08-07T15:33:34.040Z,3.35
2022-08-07T15:36:06.675Z,3.65
2022-08-07T15:38:58.956Z,3.78
2022-08-07T15:44:16.241Z,4.43
2022-08-07T15:46:51.650Z,4.20
2022-08-07T15:50:03.761Z,3.97
2022-08-07T15:52:21.910Z,3.38
2022-08-07T15:55:02.621Z,4.97
2022-08-07T15:57:39.768Z,5.00
2022-08-07T16:00:31.713Z,3.90
2022-08-07T16:03:04.268Z,3.47
2022-08-07T16:05:36.172Z,4.28
2022-08-07T16:08:31.178Z,3.72
2022-08-07T16:10:58.729Z,3.85
2022-08-07T16:13:59.672Z,5.20
2022-08-07T16:16:43.358Z,5.57
2022-08-07T16:19:58.841Z,4.10
2022-08-07T16:22:54.571Z,4.22
2022-08-07T16:25:52.502Z,4.90
2022-08-07T16:29:18.280Z,6.13
2022-08-07T16:31:51.784Z,4.25
2022-08-07T16:34:24.636Z,5.40
2022-08-07T16:38:06.500Z,4.60
2022-08-07T16:40:32.112Z,4.78
2022-08-07T16:43:09.604Z,5.03
2022-08-07T16:46:47.284Z,5.47
2022-08-07T16:50:29.197Z,5.03
2022-08-07T16:52:51.418Z,5.78
2022-08-07T16:55:08.542Z,5.22
2022-08-07T16:58:02.231Z,5.10
2022-08-07T17:00:41.658Z,4.57
2022-08-07T17:03:29.061Z,4.20
2022-08-07T17:06:29.848Z,5.20
2022-08-07T17:09:09.094Z,4.55
2022-08-07T17:12:04.578Z,5.32
2022-08-07T17:14:39.359Z,5.93
2022-08-07T17:17:21.573Z,6.25
2022-08-07T17:20:01.936Z,6.38
2022-08-07T17:22:37.709Z,5.28
2022-08-07T17:25:15.169Z,5.50
2022-08-07T17:27:59.339Z,4.82
2022-08-07T17:30:32.143Z,5.28
2022-08-07T17:34:08.465Z,4.35
2022-08-07T17:36:04.612Z,4.57
2022-08-07T17:38:50.241Z,4.50
2022-08-07T17:42:02.822Z,5.78
2022-08-07T17:44:33.239Z,5.63
2022-08-07T17:47:04.807Z,4.82
2022-08-07T17:49:44.823Z,3.97
2022-08-07T17:52:20.245Z,4.82
2022-08-07T17:55:05.173Z,6.00
2022-08-07T17:57:58.597Z,4.40
2022-08-07T18:00:34.632Z,4.38
2022-08-07T18:03:20.205Z,3.50
2022-08-07T18:06:01.398Z,4.20
2022-08-07T18:08:33.931Z,4.50
2022-08-07T18:12:07.902Z,5.43
2022-08-07T18:14:01.559Z,4.50
2022-08-07T18:16:34.944Z,3.40
2022-08-07T18:21:10.001Z,5.25
2022-08-07T18:22:06.404Z,3.50
2022-08-07T18:24:44.448Z,4.75
2022-08-07T18:27:38.451Z,4.63
2022-08-07T18:30:31.112Z,5.47
2022-08-07T18:33:15.871Z,3.78
2022-08-07T18:35:55.805Z,4.20
2022-08-07T18:38:56.458Z,4.55
2022-08-07T18:41:22.084Z,4.35
2022-08-07T18:43:57.699Z,4.18
2022-08-07T18:46:30.602Z,4.65
2022-08-07T18:50:05.143Z,3.65
2022-08-07T18:52:25.676Z,7.07
2022-08-07T18:54:49.790Z,3.97
2022-08-07T18:57:30.234Z,4.57
2022-08-07T19:00:32.565Z,8.45
2022-08-07T19:02:57.515Z,6.68
2022-08-07T19:06:03.235Z,238.80
2022-08-07T19:08:20.614Z,246.40
2022-08-07T19:10:52.701Z,272.50
2022-08-07T19:13:25.083Z,465.95
2022-08-07T19:16:02.860Z,371.77
2022-08-07T19:18:36.114Z,343.65
2022-08-07T19:21:51.177Z,281.48
2022-08-07T19:24:08.438Z,184.52
2022-08-07T19:27:09.145Z,172.82
2022-08-07T19:31:03.012Z,197.25
2022-08-07T19:32:26.076Z,165.05
2022-08-07T19:35:02.956Z,142.65
2022-08-07T19:37:55.664Z,126.40
2022-08-07T19:40:31.151Z,224.10
2022-08-07T19:43:03.696Z,278.05
2022-08-07T19:46:04.644Z,349.23
2022-08-07T19:48:27.525Z,252.40
2022-08-07T19:50:57.573Z,280.63
2022-08-07T19:54:35.359Z,320.27
2022-08-07T19:56:58.593Z,230.27
2022-08-07T19:59:12.723Z,202.10
2022-08-07T20:01:57.116Z,192.07
2022-08-07T20:04:31.920Z,185.10
2022-08-07T20:07:08.874Z,159.88
2022-08-07T20:10:35.847Z,166.40
2022-08-07T20:12:35.944Z,143.45
2022-08-07T20:15:09.717Z,121.97
2022-08-07T20:18:01.785Z,112.95
2022-08-07T20:20:33.537Z,99.10
2022-08-07T20:23:23.006Z,89.68
2022-08-07T20:25:53.139Z,83.15
2022-08-07T20:28:29.611Z,58.88
2022-08-07T20:31:01.610Z,60.10
2022-08-07T20:33:36.789Z,61.53
2022-08-07T20:36:08.873Z,40.83
2022-08-07T20:38:53.271Z,51.58
2022-08-07T20:41:28.182Z,43.38
2022-08-07T20:44:03.919Z,43.92
2022-08-07T20:46:44.600Z,40.85
2022-08-07T20:49:59.781Z,34.60
2022-08-07T20:52:07.842Z,40.70
2022-08-07T20:54:45.652Z,35.78
2022-08-07T20:57:23.777Z,32.30
2022-08-07T21:00:07.668Z,33.13
2022-08-07T21:02:59.773Z,25.25
2022-08-07T21:05:50.826Z,28.45
2022-08-07T21:08:36.733Z,30.15
2022-08-07T21:11:10.462Z,34.20
2022-08-07T21:13:57.038Z,148.40
2022-08-07T21:16:33.301Z,186.40
2022-08-07T21:19:04.466Z,155.18
2022-08-07T21:21:48.940Z,199.07
2022-08-07T21:24:30.691Z,195.40
2022-08-07T21:27:02.763Z,168.10
2022-08-07T21:29:39.693Z,142.05
2022-08-07T21:32:46.718Z,104.80
2022-08-07T21:35:16.385Z,351.05
2022-08-07T21:38:05.885Z,321.50
2022-08-07T21:40:39.271Z,526.08
2022-08-07T21:43:10.931Z,300.80
2022-08-07T21:46:10.179Z,335.05
2022-08-07T21:48:39.708Z,156.02
2022-08-07T21:51:19.823Z,136.57
2022-08-07T21:53:54.394Z,114.60
2022-08-07T21:56:37.820Z,104.10
2022-08-07T21:59:10.386Z,65.15
2022-08-07T22:02:10.803Z,63.92
2022-08-07T22:04:51.393Z,44.22
2022-08-07T22:07:31.581Z,33.83
2022-08-07T22:10:17.169Z,24.35
2022-08-07T22:12:47.602Z,18.67
2022-08-07T22:16:38.694Z,13.43
2022-08-07T22:18:12.834Z,14.00
2022-08-07T22:20:46.117Z,10.27
2022-08-07T22:25:48.154Z,9.88
2022-08-07T22:28:32.115Z,8.00
2022-08-07T22:31:05.198Z,6.03
2022-08-07T22:33:50.989Z,7.72
2022-08-07T22:36:27.150Z,5.47
2022-08-07T22:38:58.670Z,6.68
2022-08-07T22:42:03.696Z,5.63
2022-08-07T22:44:23.366Z,7.07
2022-08-07T22:47:11.409Z,5.65
2022-08-07T22:50:03.458Z,5.45
2022-08-07T22:52:43.447Z,4.65
2022-08-07T22:55:30.768Z,4.55
2022-08-07T22:58:06.387Z,4.68
2022-08-07T23:00:38.683Z,5.05
2022-08-07T23:03:30.188Z,6.43
2022-08-07T23:06:35.921Z,5.30
2022-08-07T23:10:03.889Z,5.68
2022-08-07T23:12:11.154Z,4.90
2022-08-07T23:15:08.063Z,6.25
2022-08-07T23:17:48.474Z,5.20
2022-08-07T23:20:51.002Z,5.63
2022-08-07T23:24:06.747Z,4.85
2022-08-07T23:26:27.113Z,5.30
2022-08-07T23:29:04.354Z,5.07
2022-08-07T23:34:23.752Z,6.00
2022-08-07T23:35:01.082Z,5.40
2022-08-07T23:38:00.896Z,4.53
2022-08-07T23:40:36.323Z,4.78
2022-08-07T23:43:22.142Z,6.47
2022-08-07T23:46:02.851Z,6.07
2022-08-07T23:48:43.318Z,5.75
2022-08-07T23:52:58.580Z,5.47
2022-08-07T23:54:19.542Z,4.88
2022-08-07T23:57:00.684Z,8.40
